createdAt,value
2023-03-15T00:00:07.676Z,1.30
2023-03-15T00:02:34.341Z,1.30
2023-03-15T00:05:00.975Z,1.30
2023-03-15T00:07:27.564Z,1.30
2023-03-15T00:09:54.525Z,1.30
2023-03-15T00:12:22.973Z,1.30
2023-03-15T00:14:50.839Z,1.30
2023-03-15T00:17:17.433Z,1.40
2023-03-15T00:19:44.024Z,1.40
2023-03-15T00:22:10.898Z,1.50
2023-03-15T00:24:37.487Z,1.60
2023-03-15T00:27:05.905Z,1.60
2023-03-15T00:29:32.778Z,1.70
2023-03-15T00:31:59.612Z,1.70
2023-03-15T00:34:26.350Z,1.70
2023-03-15T00:36:56.179Z,1.70
2023-03-15T00:39:25.668Z,1.80
2023-03-15T00:41:56.600Z,1.80
2023-03-15T00:44:27.235Z,1.80
2023-03-15T00:46:53.926Z,1.80
2023-03-15T00:49:21.140Z,1.80
2023-03-15T00:51:47.830Z,1.80
2023-03-15T00:54:14.406Z,1.80
2023-03-15T00:56:41.379Z,1.90
2023-03-15T00:59:08.681Z,1.90
2023-03-15T01:01:35.594Z,2.00
2023-03-15T01:04:04.074Z,2.10
2023-03-15T01:06:30.745Z,2.10
2023-03-15T01:08:59.170Z,2.10
2023-03-15T01:11:27.912Z,2.10
2023-03-15T01:13:56.557Z,2.20
2023-03-15T01:16:23.875Z,2.20
2023-03-15T01:18:53.610Z,2.20
2023-03-15T01:21:22.436Z,2.30
2023-03-15T01:23:49.499Z,2.30
2023-03-15T01:26:17.484Z,2.30
2023-03-15T01:28:44.617Z,2.30
2023-03-15T01:31:24.531Z,2.30
2023-03-15T01:33:51.816Z,2.40
2023-03-15T01:36:18.886Z,2.40
2023-03-15T01:38:46.461Z,2.40
2023-03-15T01:41:14.986Z,2.40
2023-03-15T01:43:47.059Z,2.50
2023-03-15T01:46:19.822Z,2.60
2023-03-15T01:48:52.506Z,2.50
2023-03-15T01:51:36.494Z,2.50
2023-03-15T01:54:13.149Z,2.30
2023-03-15T01:56:44.878Z,2.10
2023-03-15T01:59:19.697Z,1.90
2023-03-15T02:01:47.064Z,1.90
2023-03-15T02:04:24.870Z,1.80
2023-03-15T02:06:59.188Z,1.90
2023-03-15T02:09:42.317Z,1.90
2023-03-15T02:12:10.888Z,1.90
2023-03-15T02:14:38.251Z,1.90
2023-03-15T02:17:06.774Z,1.90
2023-03-15T02:19:57.233Z,1.90
2023-03-15T02:22:36.050Z,1.90
2023-03-15T02:25:18.292Z,1.80
2023-03-15T02:27:45.694Z,1.90
2023-03-15T02:30:14.982Z,1.90
2023-03-15T02:32:42.272Z,1.90
2023-03-15T02:35:09.255Z,1.90
2023-03-15T02:37:35.866Z,1.90
2023-03-15T02:40:03.333Z,1.90
2023-03-15T02:42:29.920Z,1.90
2023-03-15T02:44:58.191Z,2.00
2023-03-15T02:47:32.815Z,1.90
2023-03-15T02:49:59.837Z,1.90
2023-03-15T02:52:26.509Z,2.00
2023-03-15T02:54:54.042Z,1.90
2023-03-15T02:57:20.844Z,2.00
2023-03-15T02:59:50.619Z,2.00
2023-03-15T03:02:17.413Z,2.00
2023-03-15T03:04:44.028Z,2.00
2023-03-15T03:07:11.113Z,2.00
2023-03-15T03:09:45.514Z,2.00
2023-03-15T03:12:13.598Z,2.00
2023-03-15T03:14:43.213Z,2.00
2023-03-15T03:17:13.533Z,2.00
2023-03-15T03:19:40.329Z,2.00
2023-03-15T03:22:07.766Z,2.00
2023-03-15T03:24:34.371Z,2.00
2023-03-15T03:27:01.378Z,2.00
2023-03-15T03:29:31.638Z,1.90
2023-03-15T03:32:00.808Z,1.90
2023-03-15T03:34:27.507Z,1.80
2023-03-15T03:36:55.540Z,1.70
2023-03-15T03:39:37.079Z,1.70
2023-03-15T03:42:04.045Z,1.70
2023-03-15T03:44:30.871Z,1.80
2023-03-15T03:46:57.531Z,1.80
2023-03-15T03:49:24.199Z,1.80
2023-03-15T03:51:50.807Z,1.90
2023-03-15T03:54:17.845Z,1.90
2023-03-15T03:56:44.632Z,1.90
2023-03-15T03:59:11.277Z,1.90
2023-03-15T04:01:51.147Z,1.80
2023-03-15T04:04:17.806Z,1.80
2023-03-15T04:06:45.869Z,1.80
2023-03-15T04:09:14.857Z,1.80
2023-03-15T04:11:44.140Z,1.80
2023-03-15T04:14:12.210Z,1.90
2023-03-15T04:16:39.426Z,1.90
2023-03-15T04:19:08.995Z,1.90
2023-03-15T04:21:37.034Z,1.90
2023-03-15T04:24:22.645Z,1.80
2023-03-15T04:27:08.088Z,1.90
2023-03-15T04:29:53.149Z,1.90
2023-03-15T04:32:31.513Z,1.90
2023-03-15T04:35:12.071Z,1.90
2023-03-15T04:37:54.494Z,1.90
2023-03-15T04:40:34.928Z,1.90
2023-03-15T04:43:14.674Z,1.90
2023-03-15T04:46:01.313Z,1.90
2023-03-15T04:48:39.953Z,2.00
2023-03-15T04:51:21.240Z,2.00
2023-03-15T04:54:03.961Z,1.90
2023-03-15T04:56:45.412Z,2.00
2023-03-15T04:59:30.257Z,1.90
2023-03-15T05:02:23.971Z,2.00
2023-03-15T05:05:02.397Z,2.00
2023-03-15T05:07:51.642Z,1.90
2023-03-15T05:10:30.205Z,2.00
2023-03-15T05:13:08.558Z,2.00
2023-03-15T05:16:04.402Z,2.00
2023-03-15T05:18:57.482Z,2.00
2023-03-15T05:21:24.085Z,1.90
2023-03-15T05:24:09.589Z,1.90
2023-03-15T05:26:48.000Z,2.00
2023-03-15T05:29:25.229Z,2.00
2023-03-15T05:32:19.440Z,1.90
2023-03-15T05:35:02.184Z,2.00
2023-03-15T05:37:42.885Z,2.00
2023-03-15T05:40:23.954Z,2.00
2023-03-15T05:43:11.008Z,2.00
2023-03-15T05:45:54.120Z,2.00
2023-03-15T05:48:39.434Z,2.00
2023-03-15T05:51:28.340Z,2.00
2023-03-15T05:54:13.014Z,2.00
2023-03-15T05:56:59.888Z,2.10
2023-03-15T05:59:44.957Z,2.10
2023-03-15T06:02:42.275Z,2.10
2023-03-15T06:05:33.151Z,2.10
2023-03-15T06:08:03.124Z,2.10
2023-03-15T06:10:29.875Z,2.10
2023-03-15T06:12:59.958Z,2.10
2023-03-15T06:15:26.746Z,2.10
2023-03-15T06:17:56.004Z,2.10
2023-03-15T06:20:22.659Z,2.20
2023-03-15T06:22:49.264Z,2.10
2023-03-15T06:25:41.920Z,2.20
2023-03-15T06:28:08.666Z,2.20
2023-03-15T06:30:36.972Z,2.20
2023-03-15T06:33:03.654Z,2.20
2023-03-15T06:35:30.958Z,2.10
2023-03-15T06:37:57.732Z,2.10
2023-03-15T06:40:24.418Z,2.00
2023-03-15T06:42:51.214Z,2.00
2023-03-15T06:45:20.323Z,1.90
2023-03-15T06:47:47.517Z,1.90
2023-03-15T06:50:15.632Z,1.90
2023-03-15T06:52:42.288Z,1.90
2023-03-15T06:55:10.452Z,1.90
2023-03-15T06:57:37.267Z,1.90
2023-03-15T07:00:11.167Z,2.00
2023-03-15T07:02:38.174Z,2.00
2023-03-15T07:05:05.553Z,2.00
2023-03-15T07:07:32.231Z,2.10
2023-03-15T07:09:58.816Z,2.10
2023-03-15T07:12:25.574Z,2.20
2023-03-15T07:14:52.251Z,2.20
2023-03-15T07:17:18.859Z,2.30
2023-03-15T07:19:55.756Z,2.30
2023-03-15T07:22:23.572Z,2.40
2023-03-15T07:24:50.415Z,2.40
2023-03-15T07:27:19.248Z,2.40
2023-03-15T07:29:46.121Z,2.30
2023-03-15T07:32:12.757Z,2.30
2023-03-15T07:34:39.515Z,2.40
2023-03-15T07:37:06.331Z,2.50
2023-03-15T07:39:32.946Z,2.50
2023-03-15T07:42:00.680Z,2.50
2023-03-15T07:44:32.161Z,2.50
2023-03-15T07:46:58.984Z,2.60
2023-03-15T07:49:25.811Z,2.70
2023-03-15T07:51:52.582Z,2.70
2023-03-15T07:54:20.136Z,2.80
2023-03-15T07:56:46.726Z,2.80
2023-03-15T07:59:13.393Z,2.80
2023-03-15T08:01:40.026Z,2.80
2023-03-15T08:04:06.754Z,2.90
2023-03-15T08:06:33.418Z,2.90
2023-03-15T08:09:01.501Z,2.90
2023-03-15T08:11:28.080Z,2.90
2023-03-15T08:13:54.682Z,3.10
2023-03-15T08:16:21.356Z,3.10
2023-03-15T08:18:48.002Z,3.30
2023-03-15T08:21:14.663Z,3.50
2023-03-15T08:23:41.323Z,3.70
2023-03-15T08:26:07.934Z,3.80
2023-03-15T08:28:34.599Z,3.90
2023-03-15T08:31:01.580Z,4.00
2023-03-15T08:33:30.153Z,4.00
2023-03-15T08:35:56.838Z,4.00
2023-03-15T08:38:23.480Z,4.00
2023-03-15T08:40:55.128Z,4.00
2023-03-15T08:43:21.806Z,3.70
2023-03-15T08:46:00.530Z,3.60
2023-03-15T08:48:28.392Z,3.50
2023-03-15T08:50:55.010Z,3.60
2023-03-15T08:53:21.686Z,3.80
2023-03-15T08:55:49.435Z,4.20
2023-03-15T08:58:16.092Z,4.30
2023-03-15T09:00:42.747Z,4.50
2023-03-15T09:03:09.475Z,4.50
2023-03-15T09:05:36.885Z,4.60
2023-03-15T09:08:04.513Z,4.50
2023-03-15T09:10:31.176Z,4.40
2023-03-15T09:12:57.749Z,4.60
2023-03-15T09:15:24.346Z,4.60
2023-03-15T09:17:51.722Z,4.50
2023-03-15T09:20:21.808Z,4.40
2023-03-15T09:22:58.510Z,4.30
2023-03-15T09:25:26.089Z,4.10
2023-03-15T09:27:53.364Z,4.10
2023-03-15T09:30:20.289Z,4.60
2023-03-15T09:32:47.212Z,4.80
2023-03-15T09:35:16.849Z,5.00
2023-03-15T09:37:43.552Z,4.90
2023-03-15T09:40:29.183Z,4.90
2023-03-15T09:43:01.211Z,5.10
2023-03-15T09:45:48.124Z,5.40
2023-03-15T09:48:26.453Z,5.50
2023-03-15T09:51:08.772Z,5.60
2023-03-15T09:54:00.511Z,5.80
2023-03-15T09:56:28.169Z,6.30
2023-03-15T09:58:59.367Z,6.30
2023-03-15T10:01:32.275Z,6.70
2023-03-15T10:04:07.934Z,7.00
2023-03-15T10:06:38.032Z,7.50
2023-03-15T10:09:13.829Z,7.90
2023-03-15T10:11:58.921Z,7.30
2023-03-15T10:14:40.099Z,7.30
2023-03-15T10:17:12.757Z,6.80
2023-03-15T10:19:50.857Z,6.40
2023-03-15T10:22:30.096Z,6.10
2023-03-15T10:25:06.709Z,6.00
2023-03-15T10:27:39.401Z,6.90
2023-03-15T10:30:22.016Z,7.30
2023-03-15T10:33:01.648Z,7.70
2023-03-15T10:35:28.409Z,8.10
2023-03-15T10:37:55.092Z,8.50
2023-03-15T10:40:42.481Z,7.70
2023-03-15T10:43:21.888Z,7.10
2023-03-15T10:46:00.737Z,7.50
2023-03-15T10:48:29.412Z,8.30
2023-03-15T10:50:58.996Z,7.80
2023-03-15T10:53:25.791Z,7.00
2023-03-15T10:56:07.213Z,6.80
2023-03-15T10:58:47.817Z,7.00
2023-03-15T11:01:34.667Z,8.00
2023-03-15T11:04:18.987Z,7.00
2023-03-15T11:06:57.500Z,7.00
2023-03-15T11:09:26.493Z,7.60
2023-03-15T11:12:06.162Z,8.10
2023-03-15T11:14:40.184Z,7.90
2023-03-15T11:17:14.835Z,8.10
2023-03-15T11:19:46.252Z,8.90
2023-03-15T11:22:13.903Z,8.40
2023-03-15T11:24:40.626Z,7.50
2023-03-15T11:27:14.355Z,6.90
2023-03-15T11:29:47.398Z,7.80
2023-03-15T11:32:21.106Z,8.30
2023-03-15T11:35:29.078Z,8.30
2023-03-15T11:38:14.656Z,8.20
2023-03-15T11:40:51.573Z,7.70
2023-03-15T11:43:23.245Z,7.40
2023-03-15T11:46:03.539Z,7.20
2023-03-15T11:48:57.560Z,7.90
2023-03-15T11:51:24.267Z,8.40
2023-03-15T11:54:07.419Z,7.80
2023-03-15T11:56:51.766Z,7.20
2023-03-15T11:59:29.327Z,7.40
2023-03-15T12:02:26.237Z,7.70
2023-03-15T12:04:54.377Z,7.70
2023-03-15T12:07:23.817Z,7.60
2023-03-15T12:09:52.643Z,7.10
2023-03-15T12:12:35.480Z,7.20
2023-03-15T12:15:19.658Z,7.80
2023-03-15T12:17:57.774Z,8.90
2023-03-15T12:20:40.743Z,8.90
2023-03-15T12:23:19.374Z,8.40
2023-03-15T12:25:58.706Z,9.10
2023-03-15T12:28:41.250Z,9.20
2023-03-15T12:31:14.502Z,9.50
2023-03-15T12:33:53.416Z,9.80
2023-03-15T12:36:32.442Z,9.90
2023-03-15T12:39:20.765Z,8.90
2023-03-15T12:41:51.465Z,8.30
2023-03-15T12:44:36.318Z,8.00
2023-03-15T12:47:08.708Z,8.70
2023-03-15T12:49:41.615Z,9.10
2023-03-15T12:52:11.323Z,8.80
2023-03-15T12:54:55.095Z,7.70
2023-03-15T12:57:30.560Z,6.60
2023-03-15T13:00:06.519Z,6.30
2023-03-15T13:02:44.511Z,6.10
2023-03-15T13:05:28.719Z,5.80
2023-03-15T13:08:17.475Z,5.50
2023-03-15T13:11:00.188Z,5.30
2023-03-15T13:13:48.309Z,5.00
2023-03-15T13:16:45.940Z,5.50
2023-03-15T13:19:25.710Z,6.50
2023-03-15T13:22:22.045Z,6.80
2023-03-15T13:25:15.838Z,6.00
2023-03-15T13:27:51.853Z,6.40
2023-03-15T13:30:35.125Z,6.90
2023-03-15T13:33:29.243Z,7.50
2023-03-15T13:36:05.683Z,7.80
2023-03-15T13:38:39.694Z,8.10
2023-03-15T13:41:17.923Z,8.30
2023-03-15T13:43:45.125Z,8.40
2023-03-15T13:46:11.940Z,8.40
2023-03-15T13:48:42.186Z,8.40
2023-03-15T13:51:25.257Z,8.30
2023-03-15T13:54:07.214Z,8.30
2023-03-15T13:56:48.869Z,8.00
2023-03-15T13:59:17.374Z,8.00
2023-03-15T14:01:44.081Z,8.30
2023-03-15T14:04:17.305Z,8.70
2023-03-15T14:06:47.275Z,8.90
2023-03-15T14:09:21.416Z,9.00
2023-03-15T14:12:02.350Z,9.30
2023-03-15T14:14:31.073Z,9.20
2023-03-15T14:17:05.409Z,9.00
2023-03-15T14:19:35.142Z,8.90
2023-03-15T14:22:17.515Z,9.00
2023-03-15T14:24:47.404Z,9.10
2023-03-15T14:27:27.942Z,9.30
2023-03-15T14:29:57.785Z,9.30
2023-03-15T14:32:33.747Z,9.10
2023-03-15T14:35:05.080Z,9.30
2023-03-15T14:37:37.599Z,9.30
2023-03-15T14:40:17.408Z,9.20
2023-03-15T14:42:45.051Z,9.10
2023-03-15T14:45:12.142Z,9.10
2023-03-15T14:47:55.591Z,9.40
2023-03-15T14:50:25.203Z,9.60
2023-03-15T14:52:54.053Z,10.10
2023-03-15T14:55:23.756Z,9.50
2023-03-15T14:57:51.466Z,9.50
2023-03-15T15:00:20.504Z,10.20
2023-03-15T15:02:53.620Z,10.40
2023-03-15T15:05:41.442Z,10.10
2023-03-15T15:08:13.175Z,10.20
2023-03-15T15:10:41.465Z,10.50
2023-03-15T15:13:14.744Z,10.60
2023-03-15T15:15:54.601Z,11.20
2023-03-15T15:18:28.189Z,11.60
2023-03-15T15:20:56.588Z,11.20
2023-03-15T15:23:32.668Z,11.00
2023-03-15T15:26:02.427Z,10.90
2023-03-15T15:28:35.746Z,10.80
2023-03-15T15:31:07.296Z,10.90
2023-03-15T15:33:34.832Z,10.50
2023-03-15T15:36:02.072Z,11.10
2023-03-15T15:38:38.378Z,10.90
2023-03-15T15:41:06.491Z,11.10
2023-03-15T15:43:33.760Z,10.80
2023-03-15T15:46:01.822Z,10.70
2023-03-15T15:48:28.544Z,10.20
2023-03-15T15:50:55.591Z,9.20
2023-03-15T15:53:22.813Z,9.10
2023-03-15T15:55:49.450Z,9.00
2023-03-15T15:58:17.367Z,8.70
2023-03-15T16:00:44.014Z,8.50
2023-03-15T16:03:16.058Z,8.20
2023-03-15T16:05:42.914Z,8.00
2023-03-15T16:08:21.336Z,8.20
2023-03-15T16:10:48.111Z,8.10
2023-03-15T16:13:15.242Z,8.10
2023-03-15T16:15:41.856Z,8.00
2023-03-15T16:18:12.028Z,7.90
2023-03-15T16:20:40.191Z,7.90
2023-03-15T16:23:07.239Z,7.90
2023-03-15T16:25:36.526Z,7.70
2023-03-15T16:28:04.318Z,7.60
2023-03-15T16:30:32.138Z,7.70
2023-03-15T16:32:58.904Z,7.80
2023-03-15T16:35:35.124Z,7.90
2023-03-15T16:38:05.446Z,7.90
2023-03-15T16:40:34.461Z,7.70
2023-03-15T16:43:01.296Z,7.50
2023-03-15T16:45:28.441Z,7.40
2023-03-15T16:47:56.290Z,7.10
2023-03-15T16:50:23.870Z,7.00
2023-03-15T16:52:55.791Z,7.10
2023-03-15T16:55:26.230Z,7.00
2023-03-15T16:57:53.020Z,6.80
2023-03-15T17:00:20.611Z,6.70
2023-03-15T17:02:49.681Z,6.50
2023-03-15T17:05:18.936Z,6.30
2023-03-15T17:07:46.620Z,6.10
2023-03-15T17:10:29.040Z,5.90
2023-03-15T17:12:57.027Z,5.80
2023-03-15T17:15:25.883Z,5.60
2023-03-15T17:17:53.639Z,5.40
2023-03-15T17:20:28.141Z,5.30
2023-03-15T17:22:58.264Z,5.20
2023-03-15T17:25:25.323Z,5.00
2023-03-15T17:27:52.711Z,4.90
2023-03-15T17:30:25.182Z,4.70
2023-03-15T17:32:53.764Z,4.60
2023-03-15T17:35:21.150Z,4.50
2023-03-15T17:37:48.297Z,4.40
2023-03-15T17:40:27.265Z,4.20
2023-03-15T17:42:58.826Z,4.00
2023-03-15T17:45:31.557Z,3.80
2023-03-15T17:47:58.276Z,3.60
2023-03-15T17:50:27.139Z,3.50
2023-03-15T17:53:00.087Z,3.40
2023-03-15T17:55:28.851Z,3.00
2023-03-15T17:57:55.866Z,2.90
2023-03-15T18:00:23.817Z,2.70
2023-03-15T18:02:56.548Z,2.50
2023-03-15T18:05:29.078Z,2.40
2023-03-15T18:07:59.111Z,2.40
2023-03-15T18:10:32.628Z,2.40
2023-03-15T18:12:59.654Z,2.40
2023-03-15T18:15:26.208Z,2.30
2023-03-15T18:17:52.874Z,2.40
2023-03-15T18:20:22.124Z,2.50
2023-03-15T18:22:49.555Z,2.50
2023-03-15T18:25:22.244Z,2.20
2023-03-15T18:27:49.399Z,2.00
2023-03-15T18:30:19.004Z,1.70
2023-03-15T18:32:45.829Z,1.50
2023-03-15T18:35:17.929Z,1.50
2023-03-15T18:37:45.176Z,1.70
2023-03-15T18:40:14.017Z,1.90
2023-03-15T18:42:42.346Z,2.00
2023-03-15T18:45:18.123Z,2.00
2023-03-15T18:47:44.844Z,2.00
2023-03-15T18:50:12.417Z,2.00
2023-03-15T18:52:39.658Z,2.00
2023-03-15T18:55:07.780Z,2.10
2023-03-15T18:57:35.963Z,2.10
2023-03-15T19:00:13.058Z,2.10
2023-03-15T19:02:41.705Z,2.00
2023-03-15T19:05:09.550Z,1.80
2023-03-15T19:07:36.222Z,1.70
2023-03-15T19:10:03.245Z,1.40
2023-03-15T19:12:29.907Z,1.30
2023-03-15T19:14:56.533Z,1.00
2023-03-15T19:17:23.433Z,0.90
2023-03-15T19:19:50.115Z,0.90
2023-03-15T19:22:17.072Z,0.80
2023-03-15T19:24:43.716Z,0.70
2023-03-15T19:27:10.359Z,0.80
2023-03-15T19:29:36.959Z,1.10
2023-03-15T19:32:04.107Z,1.40
2023-03-15T19:34:31.592Z,1.60
2023-03-15T19:36:58.749Z,1.60
2023-03-15T19:39:25.350Z,1.30
2023-03-15T19:41:52.016Z,1.10
2023-03-15T19:44:18.636Z,1.00
2023-03-15T19:46:45.412Z,1.10
2023-03-15T19:49:12.419Z,1.30
2023-03-15T19:51:39.022Z,1.50
2023-03-15T19:54:05.865Z,1.60
2023-03-15T19:56:32.472Z,1.70
2023-03-15T19:58:59.055Z,1.80
2023-03-15T20:01:25.671Z,1.90
2023-03-15T20:03:52.374Z,2.00
2023-03-15T20:06:19.136Z,2.10
2023-03-15T20:08:45.736Z,2.10
2023-03-15T20:11:19.818Z,2.20
2023-03-15T20:13:46.680Z,2.20
2023-03-15T20:16:13.354Z,2.30
2023-03-15T20:18:40.041Z,2.20
2023-03-15T20:21:06.713Z,2.20
2023-03-15T20:23:33.372Z,2.20
2023-03-15T20:26:10.655Z,2.10
2023-03-15T20:28:41.237Z,2.10
2023-03-15T20:31:15.509Z,2.20
2023-03-15T20:33:43.278Z,2.10
2023-03-15T20:36:11.069Z,2.10
2023-03-15T20:38:37.957Z,2.00
2023-03-15T20:41:06.525Z,2.00
2023-03-15T20:43:33.782Z,2.00
2023-03-15T20:46:02.051Z,2.10
2023-03-15T20:48:30.833Z,2.10
2023-03-15T20:50:58.393Z,2.10
2023-03-15T20:53:25.996Z,2.10
2023-03-15T20:55:52.672Z,2.10
2023-03-15T20:58:19.342Z,2.00
2023-03-15T21:00:45.992Z,1.90
2023-03-15T21:03:13.930Z,2.00
2023-03-15T21:05:42.054Z,2.00
2023-03-15T21:08:09.830Z,1.90
2023-03-15T21:10:37.310Z,1.90
2023-03-15T21:13:09.524Z,1.80
2023-03-15T21:15:45.947Z,1.80
2023-03-15T21:18:14.939Z,1.80
2023-03-15T21:20:41.615Z,1.80
2023-03-15T21:23:09.122Z,1.80
2023-03-15T21:25:36.482Z,1.80
2023-03-15T21:28:04.094Z,1.80
2023-03-15T21:30:32.032Z,1.80
2023-03-15T21:32:58.721Z,1.80
2023-03-15T21:35:26.130Z,1.70
2023-03-15T21:37:52.749Z,1.70
2023-03-15T21:40:19.418Z,1.70
2023-03-15T21:42:47.647Z,1.60
2023-03-15T21:45:14.519Z,1.60
2023-03-15T21:47:41.433Z,1.60
2023-03-15T21:50:08.927Z,1.50
2023-03-15T21:52:35.543Z,1.50
2023-03-15T21:55:02.272Z,1.50
2023-03-15T21:57:28.901Z,1.50
2023-03-15T21:59:55.564Z,1.50
2023-03-15T22:02:22.123Z,1.50
2023-03-15T22:04:48.861Z,1.30
2023-03-15T22:07:15.595Z,1.30
2023-03-15T22:09:43.216Z,1.40
2023-03-15T22:12:10.302Z,1.40
2023-03-15T22:14:37.026Z,1.40
2023-03-15T22:17:04.678Z,1.40
2023-03-15T22:19:32.014Z,1.40
2023-03-15T22:21:58.785Z,1.40
2023-03-15T22:24:25.492Z,1.50
2023-03-15T22:26:53.027Z,1.40
2023-03-15T22:29:19.978Z,1.40
2023-03-15T22:31:46.650Z,1.40
2023-03-15T22:34:13.254Z,1.40
2023-03-15T22:36:39.900Z,1.40
2023-03-15T22:39:07.504Z,1.50
2023-03-15T22:41:34.378Z,1.60
2023-03-15T22:44:01.107Z,1.50
2023-03-15T22:46:28.025Z,1.50
2023-03-15T22:48:54.783Z,1.50
2023-03-15T22:51:21.723Z,1.50
2023-03-15T22:53:48.303Z,1.50
2023-03-15T22:56:14.963Z,1.40
2023-03-15T22:58:42.144Z,1.50
2023-03-15T23:01:09.634Z,1.50
2023-03-15T23:03:36.550Z,1.40
2023-03-15T23:06:04.110Z,1.40
2023-03-15T23:08:30.853Z,1.50
2023-03-15T23:10:58.521Z,1.50
2023-03-15T23:13:25.216Z,1.60
2023-03-15T23:15:51.868Z,1.50
2023-03-15T23:18:18.461Z,1.50
2023-03-15T23:20:45.052Z,1.40
2023-03-15T23:23:11.684Z,1.40
2023-03-15T23:25:39.128Z,1.40
2023-03-15T23:28:07.286Z,1.40
2023-03-15T23:30:35.931Z,1.40
2023-03-15T23:33:03.627Z,1.40
2023-03-15T23:35:31.372Z,1.40
2023-03-15T23:37:58.085Z,1.40
2023-03-15T23:40:25.855Z,1.40
2023-03-15T23:42:58.596Z,1.30
2023-03-15T23:45:29.881Z,1.40
2023-03-15T23:47:56.935Z,1.40
2023-03-15T23:50:25.795Z,1.40
2023-03-15T23:52:55.413Z,1.50
2023-03-15T23:55:23.516Z,1.50
2023-03-15T23:57:50.797Z,1.50
